Time;durP1;ratioP1;P1;durP2;ratioP2;P2;SDS_P1;SDS_P2;PMS_P1;PMS_P2;Temp;Humidity;BMP_temperature;BMP_pressure;BME280_temperature;BME280_humidity;BME280_pressure;Samples;Min_cycle;Max_cycle;Signal;HPM_P1;HPM_P2
2022/10/17 00:01:22;;;;;;;13.03;4.13;;;;;;;;;;5033933;28;20402;-74
2022/10/17 00:03:48;;;;;;;10.93;4.07;;;;;;;;;;5033827;28;20442;-74
2022/10/17 00:06:14;;;;;;;5.73;3.77;;;;;;;;;;5034192;28;20915;-75
2022/10/17 00:08:41;;;;;;;10.43;3.70;;;;;;;;;;5033788;28;20413;-75
2022/10/17 00:11:08;;;;;;;10.20;4.10;;;;;;;;;;5032144;28;20430;-75
2022/10/17 00:13:35;;;;;;;9.23;3.90;;;;;;;;;;5033842;28;20889;-74
2022/10/17 00:16:01;;;;;;;6.87;4.27;;;;;;;;;;5033983;28;20499;-75
2022/10/17 00:18:27;;;;;;;11.00;3.90;;;;;;;;;;5032439;28;20944;-75
2022/10/17 00:20:53;;;;;;;11.90;4.30;;;;;;;;;;5032512;28;20477;-74
2022/10/17 00:23:19;;;;;;;9.40;4.60;;;;;;;;;;5032413;28;20927;-74
2022/10/17 00:25:45;;;;;;;5.93;4.63;;;;;;;;;;5033673;28;20482;-74
2022/10/17 00:28:11;;;;;;;7.77;4.30;;;;;;;;;;5033259;28;20409;-74
2022/10/17 00:30:37;;;;;;;9.50;5.20;;;;;;;;;;5033357;28;20413;-74
2022/10/17 00:33:05;;;;;;;9.77;3.70;;;;;;;;;;5033196;28;20820;-74
2022/10/17 00:35:31;;;;;;;14.40;3.57;;;;;;;;;;5033840;28;21060;-74
2022/10/17 00:37:57;;;;;;;11.40;4.43;;;;;;;;;;5033703;28;20891;-74
2022/10/17 00:40:24;;;;;;;8.50;3.67;;;;;;;;;;5033478;28;20560;-74
2022/10/17 00:42:51;;;;;;;6.70;3.57;;;;;;;;;;5033396;28;20406;-73
2022/10/17 00:45:23;;;;;;;7.70;3.60;;;;;;;;;;5032316;28;20456;-74
2022/10/17 00:48:00;;;;;;;8.93;4.27;;;;;;;;;;5033382;28;20510;-73
2022/10/17 00:50:27;;;;;;;15.10;4.30;;;;;;;;;;5033309;28;20926;-74
2022/10/17 00:52:54;;;;;;;13.13;3.43;;;;;;;;;;5032326;28;20438;-74
2022/10/17 00:55:24;;;;;;;21.93;4.30;;;;;;;;;;5033412;28;20952;-73
2022/10/17 00:57:51;;;;;;;8.17;3.93;;;;;;;;;;5033399;28;20757;-74
2022/10/17 01:00:17;;;;;;;21.00;3.40;;;;;;;;;;5033491;28;20833;-73
2022/10/17 01:02:44;;;;;;;6.37;3.13;;;;;;;;;;5033169;28;20789;-73
2022/10/17 01:05:10;;;;;;;11.00;3.33;;;;;;;;;;5033219;28;20841;-73
2022/10/17 01:07:37;;;;;;;10.90;4.00;;;;;;;;;;5033053;28;20487;-73
2022/10/17 01:10:04;;;;;;;16.07;3.90;;;;;;;;;;5033426;28;20414;-73
2022/10/17 01:12:36;;;;;;;11.00;3.30;;;;;;;;;;5033179;28;20397;-73
2022/10/17 01:15:01;;;;;;;12.80;3.70;;;;;;;;;;5033205;28;20412;-73
2022/10/17 01:17:46;;;;;;;11.00;3.40;;;;;;;;;;5033223;28;20434;-75
2022/10/17 01:20:31;;;;;;;19.03;3.77;;;;;;;;;;5032978;28;20478;-75
2022/10/17 01:23:13;;;;;;;10.97;3.80;;;;;;;;;;5033038;28;20427;-74
2022/10/17 01:25:52;;;;;;;13.20;3.47;;;;;;;;;;5037145;28;20419;-74
2022/10/17 01:28:26;;;;;;;15.83;3.43;;;;;;;;;;5036934;28;20903;-74
2022/10/17 01:30:58;;;;;;;12.90;2.80;;;;;;;;;;5036857;28;20411;-73
2022/10/17 01:33:45;;;;;;;10.20;3.23;;;;;;;;;;5036946;28;20956;-74
2022/10/17 01:36:22;;;;;;;9.53;3.23;;;;;;;;;;5035492;28;20877;-73
2022/10/17 01:38:50;;;;;;;11.50;4.30;;;;;;;;;;5035493;28;20829;-74
2022/10/17 01:41:31;;;;;;;10.03;3.17;;;;;;;;;;5034947;28;20439;-74
2022/10/17 01:44:24;;;;;;;10.53;3.63;;;;;;;;;;5035111;28;20412;-74
2022/10/17 01:46:50;;;;;;;12.13;3.73;;;;;;;;;;5028111;28;20482;-75
2022/10/17 01:49:18;;;;;;;7.23;3.73;;;;;;;;;;5036752;28;20428;-74
2022/10/17 01:51:46;;;;;;;7.37;3.77;;;;;;;;;;5035221;28;20910;-74
2022/10/17 01:54:27;;;;;;;11.40;3.40;;;;;;;;;;5036619;28;20416;-74
2022/10/17 01:56:55;;;;;;;9.43;3.60;;;;;;;;;;5036484;28;20412;-75
2022/10/17 01:59:35;;;;;;;10.40;2.87;;;;;;;;;;5036512;28;20478;-74
2022/10/17 02:02:02;;;;;;;4.10;3.30;;;;;;;;;;5036439;28;20409;-74
2022/10/17 02:04:28;;;;;;;6.87;4.47;;;;;;;;;;5036155;28;20954;-74
2022/10/17 02:06:54;;;;;;;14.47;3.73;;;;;;;;;;5034431;28;20477;-74
2022/10/17 02:09:22;;;;;;;9.63;3.40;;;;;;;;;;5036169;28;20491;-74
2022/10/17 02:11:56;;;;;;;4.93;3.70;;;;;;;;;;5036222;28;20411;-74
2022/10/17 02:14:46;;;;;;;7.70;3.13;;;;;;;;;;5035877;28;20449;-74
2022/10/17 02:17:30;;;;;;;11.00;3.20;;;;;;;;;;5025988;28;20787;-75
2022/10/17 02:20:02;;;;;;;10.00;3.97;;;;;;;;;;5035852;28;20467;-75
2022/10/17 02:22:40;;;;;;;7.23;3.80;;;;;;;;;;5034559;28;20415;-74
2022/10/17 02:25:14;;;;;;;10.40;2.97;;;;;;;;;;5035851;28;20418;-74
2022/10/17 02:27:43;;;;;;;17.17;3.30;;;;;;;;;;5034360;28;20467;-74
2022/10/17 02:30:15;;;;;;;3.30;3.00;;;;;;;;;;5035502;28;20416;-74
2022/10/17 02:32:49;;;;;;;9.73;3.60;;;;;;;;;;5035955;28;20407;-75
2022/10/17 02:35:16;;;;;;;8.47;3.57;;;;;;;;;;5035106;28;20423;-74
2022/10/17 02:37:43;;;;;;;11.53;4.27;;;;;;;;;;5035704;28;20878;-74
2022/10/17 02:40:10;;;;;;;7.93;3.80;;;;;;;;;;5035557;28;20524;-75
2022/10/17 02:42:38;;;;;;;16.37;4.20;;;;;;;;;;5034288;28;20462;-75
2022/10/17 02:45:04;;;;;;;4.83;3.63;;;;;;;;;;5035516;28;20458;-75
2022/10/17 02:47:43;;;;;;;10.63;3.87;;;;;;;;;;5035388;28;20970;-75
2022/10/17 02:50:09;;;;;;;16.70;4.03;;;;;;;;;;5035443;28;20483;-74
2022/10/17 02:52:53;;;;;;;7.50;3.40;;;;;;;;;;5035295;28;20408;-75
2022/10/17 02:55:22;;;;;;;7.60;3.90;;;;;;;;;;5035022;28;20407;-74
2022/10/17 02:57:53;;;;;;;9.50;3.30;;;;;;;;;;5035224;28;20413;-75
2022/10/17 03:00:20;;;;;;;6.67;3.20;;;;;;;;;;5034971;28;20993;-75
2022/10/17 03:02:48;;;;;;;8.27;3.60;;;;;;;;;;5035294;28;20400;-75
2022/10/17 03:05:17;;;;;;;8.40;3.60;;;;;;;;;;5035046;28;20412;-74
2022/10/17 03:07:43;;;;;;;6.03;4.03;;;;;;;;;;5035258;28;20414;-74
2022/10/17 03:10:09;;;;;;;16.57;4.27;;;;;;;;;;5035156;28;20496;-75
2022/10/17 03:12:35;;;;;;;4.93;3.70;;;;;;;;;;5035158;28;20412;-74
2022/10/17 03:15:01;;;;;;;4.10;3.70;;;;;;;;;;5035067;28;20404;-73
2022/10/17 03:17:27;;;;;;;4.77;4.20;;;;;;;;;;5033519;28;20424;-74
2022/10/17 03:19:53;;;;;;;8.80;3.93;;;;;;;;;;5035114;28;21046;-74
2022/10/17 03:22:19;;;;;;;12.83;3.80;;;;;;;;;;5034735;28;20809;-74
2022/10/17 03:24:45;;;;;;;8.60;3.70;;;;;;;;;;5034665;28;20815;-74
2022/10/17 03:27:11;;;;;;;8.07;3.80;;;;;;;;;;5034613;28;20454;-74
2022/10/17 03:29:37;;;;;;;15.43;4.20;;;;;;;;;;5034733;28;20408;-73
2022/10/17 03:32:03;;;;;;;10.90;3.60;;;;;;;;;;5033244;28;20973;-75
2022/10/17 03:34:29;;;;;;;8.10;3.90;;;;;;;;;;5034484;28;20455;-74
2022/10/17 03:36:55;;;;;;;3.20;3.00;;;;;;;;;;5034856;28;20554;-75
2022/10/17 03:39:21;;;;;;;9.73;3.60;;;;;;;;;;5034582;28;20459;-75
2022/10/17 03:41:47;;;;;;;13.80;3.20;;;;;;;;;;5034646;28;21028;-74
2022/10/17 03:44:13;;;;;;;9.00;3.23;;;;;;;;;;5034283;28;20422;-74
2022/10/17 03:46:39;;;;;;;14.00;3.37;;;;;;;;;;5033565;28;20427;-74
2022/10/17 03:49:04;;;;;;;16.73;3.80;;;;;;;;;;5034319;28;20462;-74
2022/10/17 03:51:33;;;;;;;6.00;3.80;;;;;;;;;;5034303;28;20990;-74
2022/10/17 03:53:59;;;;;;;3.30;3.00;;;;;;;;;;5033081;28;20953;-73
2022/10/17 03:56:25;;;;;;;13.37;4.23;;;;;;;;;;5034246;28;20412;-73
2022/10/17 03:58:52;;;;;;;13.57;11.80;;;;;;;;;;5033981;28;20471;-73
2022/10/17 04:01:18;;;;;;;13.17;6.60;;;;;;;;;;5033069;28;20465;-73
2022/10/17 04:03:47;;;;;;;4.97;4.33;;;;;;;;;;5032970;28;20440;-73
2022/10/17 04:06:13;;;;;;;16.10;4.80;;;;;;;;;;5032672;28;20919;-73
2022/10/17 04:08:41;;;;;;;6.20;3.90;;;;;;;;;;5033784;28;20419;-73
2022/10/17 04:11:08;;;;;;;14.93;4.07;;;;;;;;;;5033914;28;20443;-73
2022/10/17 04:13:35;;;;;;;11.23;3.60;;;;;;;;;;5033910;28;20416;-73
2022/10/17 04:16:03;;;;;;;7.57;3.37;;;;;;;;;;5033979;28;20392;-73
2022/10/17 04:18:29;;;;;;;3.20;3.00;;;;;;;;;;5033767;28;20403;-73
2022/10/17 04:20:55;;;;;;;5.80;3.43;;;;;;;;;;5033761;28;20436;-73
2022/10/17 04:23:22;;;;;;;6.93;3.23;;;;;;;;;;5033725;28;20411;-73
2022/10/17 04:25:48;;;;;;;31.00;6.77;;;;;;;;;;5033758;28;20903;-73
2022/10/17 04:28:14;;;;;;;8.07;3.20;;;;;;;;;;5033719;28;20396;-73
2022/10/17 04:30:40;;;;;;;15.10;3.60;;;;;;;;;;5033728;28;20404;-73
2022/10/17 04:33:06;;;;;;;5.63;3.57;;;;;;;;;;5033927;28;20414;-74
2022/10/17 04:35:32;;;;;;;15.80;3.90;;;;;;;;;;5033550;28;20420;-74
2022/10/17 04:37:58;;;;;;;5.17;3.73;;;;;;;;;;5032361;28;20428;-73
2022/10/17 04:40:25;;;;;;;7.03;3.67;;;;;;;;;;5033391;28;20521;-74
2022/10/17 04:42:51;;;;;;;12.27;3.83;;;;;;;;;;5033221;28;20404;-73
2022/10/17 04:45:17;;;;;;;17.60;4.30;;;;;;;;;;5032109;28;20431;-73
2022/10/17 04:47:43;;;;;;;13.00;4.50;;;;;;;;;;5033313;28;20463;-73
2022/10/17 04:50:09;;;;;;;7.13;3.77;;;;;;;;;;5033480;28;20415;-72
2022/10/17 04:52:38;;;;;;;11.30;4.07;;;;;;;;;;5033465;28;20412;-73
2022/10/17 04:55:05;;;;;;;6.30;4.23;;;;;;;;;;5032248;28;20446;-74
2022/10/17 04:57:34;;;;;;;6.27;4.03;;;;;;;;;;5031947;28;20427;-74
2022/10/17 05:00:00;;;;;;;10.33;4.37;;;;;;;;;;5033101;28;20525;-74
2022/10/17 05:02:26;;;;;;;4.07;3.73;;;;;;;;;;5033006;28;20796;-74
2022/10/17 05:04:52;;;;;;;8.50;3.90;;;;;;;;;;5033115;28;20474;-75
2022/10/17 05:07:18;;;;;;;8.57;4.43;;;;;;;;;;5033384;28;20416;-74
2022/10/17 05:09:44;;;;;;;8.20;3.60;;;;;;;;;;5033117;28;20850;-75
2022/10/17 05:12:10;;;;;;;5.97;4.80;;;;;;;;;;5032102;28;20810;-75
2022/10/17 05:14:36;;;;;;;4.63;3.77;;;;;;;;;;5033121;28;20430;-76
2022/10/17 05:17:02;;;;;;;5.90;3.90;;;;;;;;;;5033080;28;20404;-73
2022/10/17 05:19:27;;;;;;;12.53;4.27;;;;;;;;;;5033052;28;20467;-73
2022/10/17 05:21:53;;;;;;;10.93;4.30;;;;;;;;;;5033226;28;20408;-74
2022/10/17 05:24:19;;;;;;;9.47;3.80;;;;;;;;;;5033069;28;20408;-76
2022/10/17 05:26:45;;;;;;;6.33;3.93;;;;;;;;;;5031516;28;20798;-75
2022/10/17 05:29:11;;;;;;;3.87;3.67;;;;;;;;;;5032955;28;20772;-71
2022/10/17 05:31:37;;;;;;;13.10;5.63;;;;;;;;;;5032751;28;20767;-75
2022/10/17 05:34:03;;;;;;;9.07;4.73;;;;;;;;;;5032822;28;20415;-76
2022/10/17 05:36:29;;;;;;;7.23;4.53;;;;;;;;;;5033066;28;20415;-74
2022/10/17 05:38:55;;;;;;;9.37;3.97;;;;;;;;;;5032855;28;20451;-73
2022/10/17 05:41:21;;;;;;;8.43;4.10;;;;;;;;;;5032760;28;20455;-70
2022/10/17 05:43:49;;;;;;;5.37;4.47;;;;;;;;;;5032894;28;20462;-71
2022/10/17 05:46:14;;;;;;;50.33;5.57;;;;;;;;;;5032810;28;20399;-77
2022/10/17 05:48:40;;;;;;;10.53;5.07;;;;;;;;;;5031414;28;20550;-74
2022/10/17 05:51:08;;;;;;;20.40;5.07;;;;;;;;;;5032244;28;20413;-75
2022/10/17 05:53:35;;;;;;;4.10;3.83;;;;;;;;;;5032945;28;20875;-73
2022/10/17 05:56:03;;;;;;;12.60;5.37;;;;;;;;;;5032675;28;20783;-72
2022/10/17 05:58:29;;;;;;;16.10;6.60;;;;;;;;;;5032650;28;20582;-73
2022/10/17 06:00:59;;;;;;;5.63;4.73;;;;;;;;;;5032852;28;20759;-74
2022/10/17 06:03:25;;;;;;;9.93;4.37;;;;;;;;;;5032396;28;20408;-74
2022/10/17 06:05:51;;;;;;;11.37;5.33;;;;;;;;;;5032555;28;20412;-74
2022/10/17 06:08:17;;;;;;;12.33;5.90;;;;;;;;;;5032729;28;20415;-76
2022/10/17 06:10:43;;;;;;;8.67;4.13;;;;;;;;;;5035174;28;20800;-74
2022/10/17 06:13:09;;;;;;;12.63;4.93;;;;;;;;;;5036182;28;20411;-75
2022/10/17 06:15:35;;;;;;;19.53;8.63;;;;;;;;;;5034919;28;20416;-74
2022/10/17 06:18:01;;;;;;;6.93;4.23;;;;;;;;;;5036178;28;20412;-74
2022/10/17 06:20:27;;;;;;;8.33;4.40;;;;;;;;;;5034550;28;20483;-72
2022/10/17 06:22:53;;;;;;;9.13;4.90;;;;;;;;;;5034625;28;20774;-73
2022/10/17 06:25:19;;;;;;;5.83;4.67;;;;;;;;;;5036105;28;20973;-74
2022/10/17 06:27:45;;;;;;;12.13;4.97;;;;;;;;;;5035891;28;20479;-74
2022/10/17 06:30:11;;;;;;;12.23;4.73;;;;;;;;;;5035935;28;20416;-74
2022/10/17 06:32:37;;;;;;;9.80;5.30;;;;;;;;;;5035748;28;20412;-73
2022/10/17 06:35:03;;;;;;;19.47;5.90;;;;;;;;;;5034342;28;20419;-72
2022/10/17 06:37:32;;;;;;;10.97;5.30;;;;;;;;;;5035411;28;20408;-72
2022/10/17 06:39:58;;;;;;;10.57;6.23;;;;;;;;;;5035368;28;20474;-74
2022/10/17 06:42:24;;;;;;;7.83;5.43;;;;;;;;;;5035288;28;20761;-74
2022/10/17 06:44:50;;;;;;;10.93;6.10;;;;;;;;;;5035716;28;20411;-74
2022/10/17 06:47:16;;;;;;;15.27;8.57;;;;;;;;;;5033656;28;20808;-74
2022/10/17 06:49:42;;;;;;;15.07;7.20;;;;;;;;;;5034138;28;20497;-74
2022/10/17 06:52:09;;;;;;;16.20;7.80;;;;;;;;;;5035349;28;20466;-73
2022/10/17 06:54:35;;;;;;;6.00;5.57;;;;;;;;;;5035415;28;20469;-73
2022/10/17 06:57:01;;;;;;;7.40;6.67;;;;;;;;;;5035524;28;20495;-74
2022/10/17 06:59:27;;;;;;;8.40;6.57;;;;;;;;;;5035286;28;20455;-74
2022/10/17 07:01:53;;;;;;;7.30;6.70;;;;;;;;;;5044954;28;20435;-74
2022/10/17 07:04:19;;;;;;;8.50;6.77;;;;;;;;;;5055302;28;20494;-72
2022/10/17 07:06:45;;;;;;;6.60;6.10;;;;;;;;;;5055217;28;20485;-75
2022/10/17 07:09:11;;;;;;;9.27;7.00;;;;;;;;;;5055304;28;20407;-74
2022/10/17 07:11:39;;;;;;;20.60;7.70;;;;;;;;;;5055169;28;20415;-75
2022/10/17 07:14:04;;;;;;;11.83;5.90;;;;;;;;;;5055224;28;20423;-74
2022/10/17 07:16:30;;;;;;;8.40;7.60;;;;;;;;;;5055100;28;20941;-75
2022/10/17 07:18:56;;;;;;;16.80;9.00;;;;;;;;;;5053735;28;20468;-76
2022/10/17 07:21:22;;;;;;;19.37;7.00;;;;;;;;;;5053776;28;20509;-76
2022/10/17 07:23:48;;;;;;;10.60;5.60;;;;;;;;;;5054985;28;20399;-76
2022/10/17 07:26:15;;;;;;;18.83;5.90;;;;;;;;;;5054984;28;20484;-75
2022/10/17 07:28:43;;;;;;;10.07;5.40;;;;;;;;;;5054889;28;20412;-76
2022/10/17 07:31:10;;;;;;;10.07;5.97;;;;;;;;;;5054905;28;20768;-75
2022/10/17 07:33:36;;;;;;;5.80;5.30;;;;;;;;;;5054870;28;20408;-75
2022/10/17 07:36:03;;;;;;;7.37;5.80;;;;;;;;;;5054703;28;20417;-73
2022/10/17 07:38:29;;;;;;;23.77;6.40;;;;;;;;;;5054754;28;20505;-77
2022/10/17 07:40:56;;;;;;;14.30;5.10;;;;;;;;;;5054642;28;20785;-75
2022/10/17 07:43:23;;;;;;;9.63;6.20;;;;;;;;;;5054626;28;20395;-71
2022/10/17 07:45:49;;;;;;;63.07;10.43;;;;;;;;;;5053375;28;20436;-71
2022/10/17 07:48:15;;;;;;;77.57;14.03;;;;;;;;;;5054366;28;20469;-75
2022/10/17 07:50:41;;;;;;;16.37;6.70;;;;;;;;;;5054470;28;20418;-75
2022/10/17 07:53:07;;;;;;;46.73;11.60;;;;;;;;;;5054414;28;20845;-71
2022/10/17 07:55:33;;;;;;;6.80;6.00;;;;;;;;;;5054395;28;20776;-71
2022/10/17 07:57:59;;;;;;;8.23;6.10;;;;;;;;;;5054381;28;20476;-72
2022/10/17 08:00:25;;;;;;;38.37;11.73;;;;;;;;;;5054163;28;20977;-72
2022/10/17 08:02:51;;;;;;;10.30;7.83;;;;;;;;;;5054227;28;20410;-73
2022/10/17 08:05:17;;;;;;;12.63;7.37;;;;;;;;;;5054112;28;20429;-74
2022/10/17 08:07:43;;;;;;;23.37;12.53;;;;;;;;;;5054081;28;20418;-76
2022/10/17 08:10:11;;;;;;;9.27;7.60;;;;;;;;;;5052848;28;20440;-75
2022/10/17 08:12:37;;;;;;;10.70;5.83;;;;;;;;;;5054039;28;20408;-75
2022/10/17 08:15:04;;;;;;;18.33;11.13;;;;;;;;;;5053998;28;20425;-72
2022/10/17 08:17:30;;;;;;;6.23;5.83;;;;;;;;;;5053975;28;20927;-72
2022/10/17 08:19:56;;;;;;;15.50;8.20;;;;;;;;;;5053901;28;20463;-74
2022/10/17 08:22:22;;;;;;;13.73;6.60;;;;;;;;;;5053929;28;20854;-75
2022/10/17 08:24:48;;;;;;;6.10;5.60;;;;;;;;;;5052563;28;20466;-75
2022/10/17 08:27:20;;;;;;;13.40;7.97;;;;;;;;;;5053756;28;20478;-73
2022/10/17 08:29:47;;;;;;;7.93;6.30;;;;;;;;;;5053820;28;20410;-72
2022/10/17 08:32:13;;;;;;;9.23;5.37;;;;;;;;;;5053252;28;20741;-72
2022/10/17 08:34:39;;;;;;;6.17;5.30;;;;;;;;;;5052416;28;20439;-72
2022/10/17 08:37:05;;;;;;;5.27;4.93;;;;;;;;;;5052318;28;20478;-75
2022/10/17 08:39:31;;;;;;;13.30;5.43;;;;;;;;;;5053503;28;20565;-74
2022/10/17 08:42:00;;;;;;;5.17;4.73;;;;;;;;;;5053488;28;20414;-73
2022/10/17 08:44:29;;;;;;;4.17;3.73;;;;;;;;;;5053834;28;20512;-72
2022/10/17 08:46:57;;;;;;;11.63;4.03;;;;;;;;;;5051948;28;20467;-72
2022/10/17 08:49:28;;;;;;;11.50;4.80;;;;;;;;;;5053402;28;20421;-75
2022/10/17 08:51:57;;;;;;;9.83;4.20;;;;;;;;;;5053453;28;20417;-75
2022/10/17 08:54:29;;;;;;;4.80;3.87;;;;;;;;;;5053222;28;20424;-74
2022/10/17 08:56:55;;;;;;;7.23;4.23;;;;;;;;;;5053344;28;20418;-75
2022/10/17 08:59:29;;;;;;;5.53;3.67;;;;;;;;;;5053346;28;21017;-76
2022/10/17 09:01:54;;;;;;;8.23;3.20;;;;;;;;;;5052160;28;20441;-73
2022/10/17 09:04:33;;;;;;;10.80;3.20;;;;;;;;;;5052098;28;20408;-73
2022/10/17 09:07:09;;;;;;;4.87;3.20;;;;;;;;;;5053413;28;20575;-75
2022/10/17 09:09:35;;;;;;;10.20;3.13;;;;;;;;;;5052051;28;20423;-72
2022/10/17 09:12:01;;;;;;;10.97;3.10;;;;;;;;;;5053307;28;20422;-70
2022/10/17 09:14:33;;;;;;;5.30;2.87;;;;;;;;;;5051925;28;20586;-69
2022/10/17 09:17:38;;;;;;;20.30;3.80;;;;;;;;;;5053201;28;20628;-72
2022/10/17 09:20:14;;;;;;;4.40;3.03;;;;;;;;;;5031060;28;20513;-72
2022/10/17 09:22:43;;;;;;;5.60;2.83;;;;;;;;;;5030953;28;20518;-73
2022/10/17 09:25:11;;;;;;;7.20;2.53;;;;;;;;;;5043535;28;20427;-72
2022/10/17 09:27:45;;;;;;;3.37;2.40;;;;;;;;;;5053152;28;20468;-72
2022/10/17 09:30:30;;;;;;;3.80;2.53;;;;;;;;;;5053126;28;20400;-71
2022/10/17 09:32:56;;;;;;;4.97;3.20;;;;;;;;;;5053038;28;20399;-74
2022/10/17 09:35:23;;;;;;;9.27;4.13;;;;;;;;;;5053002;28;20406;-69
2022/10/17 09:37:49;;;;;;;5.10;3.73;;;;;;;;;;5053086;28;20399;-72
2022/10/17 09:40:26;;;;;;;3.73;3.00;;;;;;;;;;5051570;28;21066;-74
2022/10/17 09:42:53;;;;;;;3.30;2.90;;;;;;;;;;5052846;28;20906;-71
2022/10/17 09:45:24;;;;;;;3.23;3.13;;;;;;;;;;5054496;28;20411;-74
2022/10/17 09:47:56;;;;;;;5.80;3.70;;;;;;;;;;5056650;28;20476;-74
2022/10/17 09:50:30;;;;;;;9.10;3.70;;;;;;;;;;5056637;28;20916;-75
2022/10/17 09:52:58;;;;;;;15.90;5.50;;;;;;;;;;5056677;28;20457;-74
2022/10/17 09:55:29;;;;;;;8.27;4.23;;;;;;;;;;5056714;28;20410;-74
2022/10/17 09:57:57;;;;;;;5.83;5.40;;;;;;;;;;5055381;28;20447;-74
2022/10/17 10:00:30;;;;;;;3.30;3.10;;;;;;;;;;5056482;28;20469;-74
2022/10/17 10:03:09;;;;;;;3.03;2.77;;;;;;;;;;5056494;28;20475;-75
2022/10/17 10:05:35;;;;;;;2.90;2.77;;;;;;;;;;5055158;28;20785;-72
2022/10/17 10:08:03;;;;;;;5.20;2.90;;;;;;;;;;5056357;28;20957;-72
2022/10/17 10:10:29;;;;;;;7.23;2.47;;;;;;;;;;5056389;28;20443;-72
2022/10/17 10:13:13;;;;;;;2.67;1.77;;;;;;;;;;5056302;28;20407;-72
2022/10/17 10:15:41;;;;;;;2.40;2.17;;;;;;;;;;5055007;28;20465;-72
2022/10/17 10:18:27;;;;;;;2.00;1.90;;;;;;;;;;5056213;28;20469;-72
2022/10/17 10:21:11;;;;;;;17.63;4.40;;;;;;;;;;5055843;28;20486;-72
2022/10/17 10:23:39;;;;;;;2.50;2.27;;;;;;;;;;5056080;28;20499;-72
2022/10/17 10:26:25;;;;;;;2.17;1.97;;;;;;;;;;5056126;28;20416;-72
2022/10/17 10:28:55;;;;;;;4.93;1.70;;;;;;;;;;5056031;28;20426;-72
2022/10/17 10:31:47;;;;;;;4.17;1.73;;;;;;;;;;5056017;28;20878;-72
2022/10/17 10:34:13;;;;;;;5.50;1.60;;;;;;;;;;5054825;28;20434;-75
2022/10/17 10:36:51;;;;;;;2.87;1.73;;;;;;;;;;5054568;28;20511;-74
2022/10/17 10:39:26;;;;;;;5.90;1.97;;;;;;;;;;5055769;28;20222;-75
2022/10/17 10:41:52;;;;;;;9.57;2.60;;;;;;;;;;5055746;28;20902;-75
2022/10/17 10:44:20;;;;;;;8.20;2.07;;;;;;;;;;5055714;28;20400;-74
2022/10/17 10:46:46;;;;;;;7.23;2.13;;;;;;;;;;5054161;28;20415;-75
2022/10/17 10:49:31;;;;;;;4.83;1.80;;;;;;;;;;5055605;28;20436;-75
2022/10/17 10:51:58;;;;;;;5.00;2.30;;;;;;;;;;5055891;28;20411;-75
2022/10/17 10:54:28;;;;;;;4.57;1.87;;;;;;;;;;5055557;28;20502;-73
2022/10/17 10:56:55;;;;;;;3.10;1.70;;;;;;;;;;5055436;28;20411;-75
2022/10/17 10:59:25;;;;;;;3.33;2.00;;;;;;;;;;5055446;28;20895;-75
2022/10/17 11:01:54;;;;;;;5.00;1.60;;;;;;;;;;5055340;28;20973;-74
2022/10/17 11:04:23;;;;;;;2.50;1.73;;;;;;;;;;5055345;28;20411;-73
2022/10/17 11:06:51;;;;;;;3.30;2.13;;;;;;;;;;5055268;28;20989;-72
2022/10/17 11:09:24;;;;;;;2.80;1.90;;;;;;;;;;5055388;28;20411;-72
2022/10/17 11:12:19;;;;;;;6.13;2.00;;;;;;;;;;5055541;28;20419;-71
2022/10/17 11:14:45;;;;;;;3.00;1.90;;;;;;;;;;5035713;28;20428;-70
2022/10/17 11:17:17;;;;;;;3.40;1.60;;;;;;;;;;5055251;28;20959;-70
2022/10/17 11:19:48;;;;;;;4.03;1.90;;;;;;;;;;5055092;28;20204;-68
2022/10/17 11:22:27;;;;;;;5.20;1.80;;;;;;;;;;5054993;28;21009;-69
2022/10/17 11:24:58;;;;;;;1.70;1.57;;;;;;;;;;5053781;28;20918;-70
2022/10/17 11:27:24;;;;;;;5.57;1.70;;;;;;;;;;5054966;28;20472;-71
2022/10/17 11:29:50;;;;;;;2.40;1.97;;;;;;;;;;5055130;28;20828;-70
2022/10/17 11:32:29;;;;;;;5.77;1.70;;;;;;;;;;5054925;28;20423;-70
2022/10/17 11:35:00;;;;;;;11.40;1.83;;;;;;;;;;5054817;28;20403;-71
2022/10/17 11:37:28;;;;;;;2.43;2.23;;;;;;;;;;5054743;28;20423;-70
2022/10/17 11:39:57;;;;;;;1.73;1.60;;;;;;;;;;5054557;28;20469;-70
2022/10/17 11:42:26;;;;;;;7.03;2.03;;;;;;;;;;5054544;28;20403;-71
2022/10/17 11:44:56;;;;;;;2.00;1.60;;;;;;;;;;5054674;28;20867;-69
2022/10/17 11:47:44;;;;;;;4.33;1.67;;;;;;;;;;5054439;28;20549;-70
2022/10/17 11:50:18;;;;;;;4.77;1.47;;;;;;;;;;5054554;28;20457;-69
2022/10/17 11:52:46;;;;;;;6.07;1.40;;;;;;;;;;5054417;28;20505;-70
2022/10/17 11:55:22;;;;;;;1.47;1.37;;;;;;;;;;5054478;28;20391;-69
2022/10/17 11:58:07;;;;;;;3.07;1.20;;;;;;;;;;5054353;28;20532;-69
2022/10/17 12:00:51;;;;;;;1.53;1.50;;;;;;;;;;5054311;28;20506;-70
2022/10/17 12:03:36;;;;;;;3.03;1.50;;;;;;;;;;5054313;28;20453;-70
2022/10/17 12:06:16;;;;;;;1.93;1.50;;;;;;;;;;5054235;28;20418;-69
2022/10/17 12:08:47;;;;;;;1.30;1.30;;;;;;;;;;5053593;28;20403;-70
2022/10/17 12:11:33;;;;;;;5.10;1.33;;;;;;;;;;5054140;28;20415;-68
2022/10/17 12:14:00;;;;;;;4.40;1.50;;;;;;;;;;5050229;28;20426;-69
2022/10/17 12:16:29;;;;;;;3.00;1.57;;;;;;;;;;5054087;28;20415;-70
2022/10/17 12:19:01;;;;;;;2.50;1.30;;;;;;;;;;5053973;28;20419;-69
2022/10/17 12:21:28;;;;;;;1.37;1.27;;;;;;;;;;5054104;28;20437;-72
2022/10/17 12:23:54;;;;;;;1.47;1.43;;;;;;;;;;5053978;28;20403;-70
2022/10/17 12:26:29;;;;;;;2.83;1.60;;;;;;;;;;5053971;28;20419;-70
2022/10/17 12:28:56;;;;;;;1.50;1.40;;;;;;;;;;5053821;28;20437;-70
2022/10/17 12:31:26;;;;;;;1.40;1.40;;;;;;;;;;5052669;28;20407;-74
2022/10/17 12:33:52;;;;;;;5.60;1.87;;;;;;;;;;5053684;28;20426;-72
2022/10/17 12:36:21;;;;;;;1.20;1.20;;;;;;;;;;5053993;28;20445;-72
2022/10/17 12:38:49;;;;;;;2.03;1.60;;;;;;;;;;5053565;28;20874;-70
2022/10/17 12:41:15;;;;;;;2.27;2.13;;;;;;;;;;5053607;28;20430;-71
2022/10/17 12:43:52;;;;;;;7.10;1.60;;;;;;;;;;5053579;28;20400;-71
2022/10/17 12:46:41;;;;;;;1.30;1.30;;;;;;;;;;5052286;28;20431;-70
2022/10/17 12:49:25;;;;;;;1.40;1.30;;;;;;;;;;5033684;28;20435;-71
2022/10/17 12:52:10;;;;;;;5.03;1.60;;;;;;;;;;5033545;28;20438;-71
2022/10/17 12:54:47;;;;;;;4.30;1.70;;;;;;;;;;5033615;28;20443;-71
2022/10/17 12:57:22;;;;;;;1.50;1.40;;;;;;;;;;5032256;28;20926;-70
2022/10/17 12:59:48;;;;;;;4.70;1.93;;;;;;;;;;5032069;28;20562;-70
2022/10/17 13:02:19;;;;;;;1.80;1.70;;;;;;;;;;5033495;28;20834;-71
2022/10/17 13:04:46;;;;;;;3.83;1.37;;;;;;;;;;5033345;28;20416;-69
2022/10/17 13:07:18;;;;;;;1.30;1.30;;;;;;;;;;5033315;28;20422;-69
2022/10/17 13:09:44;;;;;;;2.30;1.20;;;;;;;;;;5033352;28;20461;-70
2022/10/17 13:12:28;;;;;;;3.60;1.60;;;;;;;;;;5033402;28;20418;-69
2022/10/17 13:14:54;;;;;;;1.20;1.10;;;;;;;;;;5033362;28;20400;-71
2022/10/17 13:17:22;;;;;;;1.60;1.50;;;;;;;;;;5033396;28;20454;-71
2022/10/17 13:19:48;;;;;;;4.73;1.57;;;;;;;;;;5036174;28;20781;-71
2022/10/17 13:22:21;;;;;;;1.97;1.63;;;;;;;;;;5037318;28;20427;-68
2022/10/17 13:24:48;;;;;;;2.40;2.27;;;;;;;;;;5037323;28;20395;-76
2022/10/17 13:27:31;;;;;;;6.90;2.03;;;;;;;;;;5036069;28;20454;-77
2022/10/17 13:29:58;;;;;;;2.00;1.30;;;;;;;;;;5035933;28;20410;-76
2022/10/17 13:32:25;;;;;;;2.33;2.10;;;;;;;;;;5035938;28;20428;-77
2022/10/17 13:35:06;;;;;;;1.70;1.60;;;;;;;;;;5035890;28;20426;-81
2022/10/17 13:37:33;;;;;;;4.90;1.30;;;;;;;;;;5037119;28;20426;-80
2022/10/17 13:39:59;;;;;;;1.80;1.33;;;;;;;;;;5037000;28;20481;-77
2022/10/17 13:42:27;;;;;;;3.33;1.63;;;;;;;;;;5037093;28;20415;-80
2022/10/17 13:44:53;;;;;;;2.00;1.20;;;;;;;;;;5035720;28;20913;-82
2022/10/17 13:47:29;;;;;;;2.97;1.90;;;;;;;;;;5042080;28;20485;-81
2022/10/17 13:49:57;;;;;;;2.53;1.77;;;;;;;;;;5056832;28;20479;-82
2022/10/17 13:52:25;;;;;;;4.50;1.67;;;;;;;;;;5056676;28;20779;-76
2022/10/17 13:54:52;;;;;;;2.00;1.30;;;;;;;;;;5056651;28;20453;-76
2022/10/17 13:57:21;;;;;;;2.00;1.27;;;;;;;;;;5056763;28;20422;-76
2022/10/17 13:59:49;;;;;;;4.40;1.80;;;;;;;;;;5055263;28;20480;-76
2022/10/17 14:02:29;;;;;;;1.83;1.63;;;;;;;;;;5056707;28;20423;-75
2022/10/17 14:05:01;;;;;;;1.53;1.43;;;;;;;;;;5056390;28;20403;-74
2022/10/17 14:07:39;;;;;;;5.10;1.60;;;;;;;;;;5056593;28;20509;-72
2022/10/17 14:10:06;;;;;;;4.47;1.67;;;;;;;;;;5056306;28;20405;-78
2022/10/17 14:12:33;;;;;;;6.20;1.83;;;;;;;;;;5056364;28;20401;-78
2022/10/17 14:15:02;;;;;;;4.87;1.50;;;;;;;;;;5056426;28;20406;-69
2022/10/17 14:17:29;;;;;;;2.60;1.10;;;;;;;;;;5056260;28;20489;-68
2022/10/17 14:20:03;;;;;;;2.20;1.40;;;;;;;;;;5056187;28;20500;-68
2022/10/17 14:22:29;;;;;;;6.23;1.43;;;;;;;;;;5056108;28;20425;-68
2022/10/17 14:24:55;;;;;;;1.60;1.50;;;;;;;;;;5056086;28;20402;-69
2022/10/17 14:27:48;;;;;;;3.10;1.60;;;;;;;;;;5056048;28;20430;-68
2022/10/17 14:30:34;;;;;;;2.20;1.67;;;;;;;;;;5054133;28;20523;-67
2022/10/17 14:33:02;;;;;;;2.83;1.50;;;;;;;;;;5055955;28;20464;-70
2022/10/17 14:35:28;;;;;;;3.17;1.60;;;;;;;;;;5055973;28;20398;-76
2022/10/17 14:37:58;;;;;;;4.90;1.97;;;;;;;;;;5054720;28;20783;-76
2022/10/17 14:40:25;;;;;;;2.40;1.60;;;;;;;;;;5055899;28;20472;-80
2022/10/17 14:42:52;;;;;;;1.97;1.70;;;;;;;;;;5054409;28;20425;-70
2022/10/17 14:45:32;;;;;;;3.13;1.53;;;;;;;;;;5055527;28;20417;-72
2022/10/17 14:48:09;;;;;;;1.63;1.53;;;;;;;;;;5055445;28;20472;-67
2022/10/17 14:50:35;;;;;;;1.90;1.80;;;;;;;;;;5055502;28;20470;-73
2022/10/17 14:53:04;;;;;;;1.50;1.37;;;;;;;;;;5055513;28;20495;-69